sensor_id;sensor_type;location;lat;lon;timestamp;P1;durP1;ratioP1;P2;durP2;ratioP2
41468;SDS011;27206;47.032;15.484;2023-07-22T00:02:17;30.48;;;28.20;;
41468;SDS011;27206;47.032;15.484;2023-07-22T00:04:43;32.22;;;30.45;;
41468;SDS011;27206;47.032;15.484;2023-07-22T00:07:09;35.35;;;33.17;;
41468;SDS011;27206;47.032;15.484;2023-07-22T00:09:35;29.95;;;28.05;;
41468;SDS011;27206;47.032;15.484;2023-07-22T00:12:00;31.88;;;29.95;;
41468;SDS011;27206;47.032;15.484;2023-07-22T00:14:26;30.70;;;28.70;;
41468;SDS011;27206;47.032;15.484;2023-07-22T00:16:51;30.98;;;29.02;;
41468;SDS011;27206;47.032;15.484;2023-07-22T00:19:17;33.47;;;31.60;;
41468;SDS011;27206;47.032;15.484;2023-07-22T00:21:43;30.95;;;29.25;;
41468;SDS011;27206;47.032;15.484;2023-07-22T00:24:09;29.20;;;27.20;;
41468;SDS011;27206;47.032;15.484;2023-07-22T00:26:35;31.52;;;29.63;;
41468;SDS011;27206;47.032;15.484;2023-07-22T00:29:01;33.15;;;31.38;;
41468;SDS011;27206;47.032;15.484;2023-07-22T00:31:27;33.58;;;31.38;;
41468;SDS011;27206;47.032;15.484;2023-07-22T00:33:53;28.30;;;26.63;;
41468;SDS011;27206;47.032;15.484;2023-07-22T00:36:19;32.00;;;30.10;;
41468;SDS011;27206;47.032;15.484;2023-07-22T00:38:45;35.85;;;33.60;;
41468;SDS011;27206;47.032;15.484;2023-07-22T00:41:10;33.17;;;31.23;;
41468;SDS011;27206;47.032;15.484;2023-07-22T00:43:36;30.83;;;28.98;;
41468;SDS011;27206;47.032;15.484;2023-07-22T00:46:03;31.80;;;29.98;;
41468;SDS011;27206;47.032;15.484;2023-07-22T00:48:29;32.42;;;30.67;;
41468;SDS011;27206;47.032;15.484;2023-07-22T00:50:55;33.63;;;31.50;;
41468;SDS011;27206;47.032;15.484;2023-07-22T00:53:21;31.98;;;29.77;;
41468;SDS011;27206;47.032;15.484;2023-07-22T00:55:47;31.52;;;29.55;;
41468;SDS011;27206;47.032;15.484;2023-07-22T00:58:12;29.50;;;27.73;;
41468;SDS011;27206;47.032;15.484;2023-07-22T01:00:38;30.85;;;29.15;;
41468;SDS011;27206;47.032;15.484;2023-07-22T01:03:04;31.17;;;29.23;;
41468;SDS011;27206;47.032;15.484;2023-07-22T01:05:29;34.15;;;31.90;;
41468;SDS011;27206;47.032;15.484;2023-07-22T01:07:56;31.58;;;29.77;;
41468;SDS011;27206;47.032;15.484;2023-07-22T01:10:22;31.95;;;29.85;;
41468;SDS011;27206;47.032;15.484;2023-07-22T01:12:48;33.47;;;31.52;;
41468;SDS011;27206;47.032;15.484;2023-07-22T01:15:14;33.35;;;31.08;;
41468;SDS011;27206;47.032;15.484;2023-07-22T01:17:40;34.97;;;32.65;;
41468;SDS011;27206;47.032;15.484;2023-07-22T01:20:06;32.97;;;30.88;;
41468;SDS011;27206;47.032;15.484;2023-07-22T01:22:33;34.08;;;31.75;;
41468;SDS011;27206;47.032;15.484;2023-07-22T01:24:59;36.55;;;34.03;;
41468;SDS011;27206;47.032;15.484;2023-07-22T01:27:26;33.63;;;31.52;;
41468;SDS011;27206;47.032;15.484;2023-07-22T01:29:51;30.02;;;28.08;;
41468;SDS011;27206;47.032;15.484;2023-07-22T01:32:17;32.13;;;30.20;;
41468;SDS011;27206;47.032;15.484;2023-07-22T01:34:45;31.60;;;29.77;;
41468;SDS011;27206;47.032;15.484;2023-07-22T01:37:10;35.50;;;33.30;;
41468;SDS011;27206;47.032;15.484;2023-07-22T01:39:36;32.45;;;30.40;;
41468;SDS011;27206;47.032;15.484;2023-07-22T01:42:02;33.17;;;31.02;;
41468;SDS011;27206;47.032;15.484;2023-07-22T01:44:28;29.67;;;27.88;;
41468;SDS011;27206;47.032;15.484;2023-07-22T01:46:53;33.60;;;31.40;;
41468;SDS011;27206;47.032;15.484;2023-07-22T01:49:19;26.98;;;25.27;;
41468;SDS011;27206;47.032;15.484;2023-07-22T01:51:45;30.10;;;28.05;;
41468;SDS011;27206;47.032;15.484;2023-07-22T01:54:11;31.08;;;29.27;;
41468;SDS011;27206;47.032;15.484;2023-07-22T01:56:37;31.50;;;29.55;;
41468;SDS011;27206;47.032;15.484;2023-07-22T01:59:04;29.90;;;27.98;;
41468;SDS011;27206;47.032;15.484;2023-07-22T02:01:30;28.02;;;26.23;;
41468;SDS011;27206;47.032;15.484;2023-07-22T02:03:55;29.13;;;27.23;;
41468;SDS011;27206;47.032;15.484;2023-07-22T02:06:21;34.53;;;32.47;;
41468;SDS011;27206;47.032;15.484;2023-07-22T02:08:47;32.88;;;30.88;;
41468;SDS011;27206;47.032;15.484;2023-07-22T02:11:13;30.67;;;28.58;;
41468;SDS011;27206;47.032;15.484;2023-07-22T02:13:38;32.88;;;31.02;;
41468;SDS011;27206;47.032;15.484;2023-07-22T02:16:04;32.50;;;30.08;;
41468;SDS011;27206;47.032;15.484;2023-07-22T02:18:29;31.40;;;29.58;;
41468;SDS011;27206;47.032;15.484;2023-07-22T02:20:56;28.98;;;27.27;;
41468;SDS011;27206;47.032;15.484;2023-07-22T02:23:22;35.03;;;32.25;;
41468;SDS011;27206;47.032;15.484;2023-07-22T02:25:49;32.90;;;30.92;;
41468;SDS011;27206;47.032;15.484;2023-07-22T02:28:15;31.63;;;29.52;;
41468;SDS011;27206;47.032;15.484;2023-07-22T02:30:41;37.03;;;34.92;;
41468;SDS011;27206;47.032;15.484;2023-07-22T02:33:07;33.05;;;30.80;;
41468;SDS011;27206;47.032;15.484;2023-07-22T02:35:33;35.78;;;33.67;;
41468;SDS011;27206;47.032;15.484;2023-07-22T02:37:59;32.08;;;30.20;;
41468;SDS011;27206;47.032;15.484;2023-07-22T02:40:26;30.02;;;28.13;;
41468;SDS011;27206;47.032;15.484;2023-07-22T02:42:52;30.98;;;28.98;;
41468;SDS011;27206;47.032;15.484;2023-07-22T02:45:18;33.53;;;31.48;;
41468;SDS011;27206;47.032;15.484;2023-07-22T02:47:43;32.80;;;30.90;;
41468;SDS011;27206;47.032;15.484;2023-07-22T02:50:09;32.47;;;30.67;;
41468;SDS011;27206;47.032;15.484;2023-07-22T02:52:35;30.27;;;28.23;;
41468;SDS011;27206;47.032;15.484;2023-07-22T02:55:05;35.10;;;33.05;;
41468;SDS011;27206;47.032;15.484;2023-07-22T02:57:44;30.77;;;28.95;;
41468;SDS011;27206;47.032;15.484;2023-07-22T03:00:14;32.70;;;30.77;;
41468;SDS011;27206;47.032;15.484;2023-07-22T03:02:54;29.98;;;27.98;;
41468;SDS011;27206;47.032;15.484;2023-07-22T03:05:27;34.67;;;32.33;;
41468;SDS011;27206;47.032;15.484;2023-07-22T03:07:53;29.85;;;28.05;;
41468;SDS011;27206;47.032;15.484;2023-07-22T03:10:19;31.42;;;29.52;;
41468;SDS011;27206;47.032;15.484;2023-07-22T03:12:45;34.45;;;32.40;;
41468;SDS011;27206;47.032;15.484;2023-07-22T03:15:10;30.52;;;28.70;;
41468;SDS011;27206;47.032;15.484;2023-07-22T03:17:37;31.90;;;29.63;;
41468;SDS011;27206;47.032;15.484;2023-07-22T03:20:04;29.67;;;27.88;;
41468;SDS011;27206;47.032;15.484;2023-07-22T03:22:35;30.17;;;28.02;;
41468;SDS011;27206;47.032;15.484;2023-07-22T03:25:01;31.50;;;29.55;;
41468;SDS011;27206;47.032;15.484;2023-07-22T03:27:27;31.20;;;29.40;;
41468;SDS011;27206;47.032;15.484;2023-07-22T03:29:53;31.65;;;29.88;;
41468;SDS011;27206;47.032;15.484;2023-07-22T03:32:18;28.92;;;27.33;;
41468;SDS011;27206;47.032;15.484;2023-07-22T03:34:44;33.97;;;32.05;;
41468;SDS011;27206;47.032;15.484;2023-07-22T03:37:09;33.28;;;31.15;;
41468;SDS011;27206;47.032;15.484;2023-07-22T03:39:35;31.00;;;29.17;;
41468;SDS011;27206;47.032;15.484;2023-07-22T03:42:01;31.00;;;28.98;;
41468;SDS011;27206;47.032;15.484;2023-07-22T03:44:26;30.60;;;28.88;;
41468;SDS011;27206;47.032;15.484;2023-07-22T03:46:53;32.33;;;30.52;;
41468;SDS011;27206;47.032;15.484;2023-07-22T03:49:19;30.33;;;28.70;;
41468;SDS011;27206;47.032;15.484;2023-07-22T03:51:45;30.42;;;28.63;;
41468;SDS011;27206;47.032;15.484;2023-07-22T03:54:11;29.42;;;27.40;;
41468;SDS011;27206;47.032;15.484;2023-07-22T03:56:36;31.10;;;29.23;;
41468;SDS011;27206;47.032;15.484;2023-07-22T03:59:05;36.15;;;33.58;;
41468;SDS011;27206;47.032;15.484;2023-07-22T04:01:30;32.92;;;30.60;;
41468;SDS011;27206;47.032;15.484;2023-07-22T04:03:56;32.13;;;30.13;;
41468;SDS011;27206;47.032;15.484;2023-07-22T04:06:22;29.92;;;28.08;;
41468;SDS011;27206;47.032;15.484;2023-07-22T04:08:47;30.92;;;29.13;;
41468;SDS011;27206;47.032;15.484;2023-07-22T04:11:13;34.55;;;32.38;;
41468;SDS011;27206;47.032;15.484;2023-07-22T04:13:39;33.13;;;30.92;;
41468;SDS011;27206;47.032;15.484;2023-07-22T04:16:04;35.30;;;33.00;;
41468;SDS011;27206;47.032;15.484;2023-07-22T04:18:30;39.35;;;36.65;;
41468;SDS011;27206;47.032;15.484;2023-07-22T04:20:59;33.55;;;31.35;;
41468;SDS011;27206;47.032;15.484;2023-07-22T04:23:25;35.72;;;32.78;;
41468;SDS011;27206;47.032;15.484;2023-07-22T04:25:51;35.22;;;32.28;;
41468;SDS011;27206;47.032;15.484;2023-07-22T04:28:17;33.95;;;31.85;;
41468;SDS011;27206;47.032;15.484;2023-07-22T04:30:43;31.52;;;29.15;;
41468;SDS011;27206;47.032;15.484;2023-07-22T04:33:19;33.83;;;31.73;;
41468;SDS011;27206;47.032;15.484;2023-07-22T04:35:44;37.70;;;34.42;;
41468;SDS011;27206;47.032;15.484;2023-07-22T04:38:10;31.73;;;29.40;;
41468;SDS011;27206;47.032;15.484;2023-07-22T04:40:35;31.90;;;29.55;;
41468;SDS011;27206;47.032;15.484;2023-07-22T04:43:01;37.78;;;35.22;;
41468;SDS011;27206;47.032;15.484;2023-07-22T04:45:28;32.45;;;30.17;;
41468;SDS011;27206;47.032;15.484;2023-07-22T04:47:53;33.15;;;31.02;;
41468;SDS011;27206;47.032;15.484;2023-07-22T04:50:19;31.42;;;29.42;;
41468;SDS011;27206;47.032;15.484;2023-07-22T04:52:46;34.63;;;32.55;;
41468;SDS011;27206;47.032;15.484;2023-07-22T04:55:12;37.17;;;34.88;;
41468;SDS011;27206;47.032;15.484;2023-07-22T04:57:39;33.17;;;30.80;;
41468;SDS011;27206;47.032;15.484;2023-07-22T05:00:06;35.08;;;32.95;;
41468;SDS011;27206;47.032;15.484;2023-07-22T05:02:37;33.00;;;30.80;;
41468;SDS011;27206;47.032;15.484;2023-07-22T05:05:03;36.90;;;34.47;;
41468;SDS011;27206;47.032;15.484;2023-07-22T05:07:29;34.63;;;32.33;;
41468;SDS011;27206;47.032;15.484;2023-07-22T05:09:55;35.90;;;33.45;;
41468;SDS011;27206;47.032;15.484;2023-07-22T05:12:23;32.33;;;30.38;;
41468;SDS011;27206;47.032;15.484;2023-07-22T05:14:48;30.67;;;28.33;;
41468;SDS011;27206;47.032;15.484;2023-07-22T05:17:14;35.00;;;32.83;;
41468;SDS011;27206;47.032;15.484;2023-07-22T05:19:40;35.90;;;33.97;;
41468;SDS011;27206;47.032;15.484;2023-07-22T05:22:06;38.58;;;35.97;;
41468;SDS011;27206;47.032;15.484;2023-07-22T05:24:32;35.38;;;33.35;;
41468;SDS011;27206;47.032;15.484;2023-07-22T05:26:58;29.50;;;27.80;;
41468;SDS011;27206;47.032;15.484;2023-07-22T05:29:24;36.05;;;33.95;;
41468;SDS011;27206;47.032;15.484;2023-07-22T05:31:50;35.50;;;33.47;;
41468;SDS011;27206;47.032;15.484;2023-07-22T05:34:15;38.85;;;36.28;;
41468;SDS011;27206;47.032;15.484;2023-07-22T05:36:41;32.20;;;30.05;;
41468;SDS011;27206;47.032;15.484;2023-07-22T05:39:06;33.92;;;31.52;;
41468;SDS011;27206;47.032;15.484;2023-07-22T05:41:32;36.65;;;34.45;;
41468;SDS011;27206;47.032;15.484;2023-07-22T05:43:59;33.78;;;31.70;;
41468;SDS011;27206;47.032;15.484;2023-07-22T05:46:24;31.00;;;29.15;;
41468;SDS011;27206;47.032;15.484;2023-07-22T05:48:50;36.80;;;34.50;;
41468;SDS011;27206;47.032;15.484;2023-07-22T05:51:15;36.92;;;34.83;;
41468;SDS011;27206;47.032;15.484;2023-07-22T05:53:42;33.58;;;31.60;;
41468;SDS011;27206;47.032;15.484;2023-07-22T05:56:08;31.88;;;29.80;;
41468;SDS011;27206;47.032;15.484;2023-07-22T05:58:34;32.92;;;31.02;;
41468;SDS011;27206;47.032;15.484;2023-07-22T06:00:59;32.63;;;30.55;;
41468;SDS011;27206;47.032;15.484;2023-07-22T06:03:25;29.52;;;27.73;;
41468;SDS011;27206;47.032;15.484;2023-07-22T06:05:51;36.60;;;34.05;;
41468;SDS011;27206;47.032;15.484;2023-07-22T06:08:17;34.85;;;32.90;;
41468;SDS011;27206;47.032;15.484;2023-07-22T06:10:42;31.13;;;29.08;;
41468;SDS011;27206;47.032;15.484;2023-07-22T06:13:08;30.35;;;28.48;;
41468;SDS011;27206;47.032;15.484;2023-07-22T06:15:34;31.30;;;29.58;;
41468;SDS011;27206;47.032;15.484;2023-07-22T06:18:00;29.60;;;27.88;;
41468;SDS011;27206;47.032;15.484;2023-07-22T06:20:26;32.17;;;30.13;;
41468;SDS011;27206;47.032;15.484;2023-07-22T06:22:52;38.50;;;36.28;;
41468;SDS011;27206;47.032;15.484;2023-07-22T06:25:17;30.73;;;29.02;;
41468;SDS011;27206;47.032;15.484;2023-07-22T06:27:43;29.35;;;27.63;;
41468;SDS011;27206;47.032;15.484;2023-07-22T06:30:09;27.08;;;25.27;;
41468;SDS011;27206;47.032;15.484;2023-07-22T06:32:36;29.88;;;28.20;;
41468;SDS011;27206;47.032;15.484;2023-07-22T06:35:03;27.30;;;25.70;;
41468;SDS011;27206;47.032;15.484;2023-07-22T06:37:29;34.65;;;32.65;;
41468;SDS011;27206;47.032;15.484;2023-07-22T06:39:55;30.23;;;28.42;;
41468;SDS011;27206;47.032;15.484;2023-07-22T06:42:20;29.85;;;28.23;;
41468;SDS011;27206;47.032;15.484;2023-07-22T06:44:46;33.88;;;31.77;;
41468;SDS011;27206;47.032;15.484;2023-07-22T06:47:12;28.45;;;26.75;;
41468;SDS011;27206;47.032;15.484;2023-07-22T06:49:38;28.77;;;27.15;;
41468;SDS011;27206;47.032;15.484;2023-07-22T06:52:06;30.13;;;28.33;;
41468;SDS011;27206;47.032;15.484;2023-07-22T06:54:32;31.45;;;29.65;;
41468;SDS011;27206;47.032;15.484;2023-07-22T06:56:57;30.55;;;28.73;;
41468;SDS011;27206;47.032;15.484;2023-07-22T06:59:23;32.65;;;30.65;;
41468;SDS011;27206;47.032;15.484;2023-07-22T07:01:48;32.78;;;30.75;;
41468;SDS011;27206;47.032;15.484;2023-07-22T07:04:14;29.58;;;27.75;;
41468;SDS011;27206;47.032;15.484;2023-07-22T07:06:39;29.45;;;27.55;;
41468;SDS011;27206;47.032;15.484;2023-07-22T07:09:05;32.40;;;30.33;;
41468;SDS011;27206;47.032;15.484;2023-07-22T07:11:31;30.30;;;28.50;;
41468;SDS011;27206;47.032;15.484;2023-07-22T07:13:57;30.42;;;28.70;;
41468;SDS011;27206;47.032;15.484;2023-07-22T07:19:44;31.88;;;30.08;;
41468;SDS011;27206;47.032;15.484;2023-07-22T07:22:10;30.88;;;29.05;;
41468;SDS011;27206;47.032;15.484;2023-07-22T07:24:35;32.72;;;30.85;;
41468;SDS011;27206;47.032;15.484;2023-07-22T07:27:01;32.33;;;30.17;;
41468;SDS011;27206;47.032;15.484;2023-07-22T07:29:27;28.55;;;26.73;;
41468;SDS011;27206;47.032;15.484;2023-07-22T07:31:52;31.20;;;29.45;;
41468;SDS011;27206;47.032;15.484;2023-07-22T07:34:18;29.52;;;27.73;;
41468;SDS011;27206;47.032;15.484;2023-07-22T07:36:44;34.45;;;32.28;;
41468;SDS011;27206;47.032;15.484;2023-07-22T07:39:09;33.90;;;31.95;;
41468;SDS011;27206;47.032;15.484;2023-07-22T07:41:35;28.27;;;26.38;;
41468;SDS011;27206;47.032;15.484;2023-07-22T07:44:01;33.38;;;31.58;;
41468;SDS011;27206;47.032;15.484;2023-07-22T07:46:27;30.27;;;28.48;;
41468;SDS011;27206;47.032;15.484;2023-07-22T07:48:54;31.15;;;29.27;;
41468;SDS011;27206;47.032;15.484;2023-07-22T07:51:21;29.98;;;28.15;;
41468;SDS011;27206;47.032;15.484;2023-07-22T07:53:49;32.53;;;30.70;;
41468;SDS011;27206;47.032;15.484;2023-07-22T07:56:16;31.88;;;30.15;;
41468;SDS011;27206;47.032;15.484;2023-07-22T07:58:44;29.15;;;27.45;;
41468;SDS011;27206;47.032;15.484;2023-07-22T08:01:11;29.55;;;27.65;;
41468;SDS011;27206;47.032;15.484;2023-07-22T08:03:37;31.33;;;29.45;;
41468;SDS011;27206;47.032;15.484;2023-07-22T08:06:03;30.23;;;28.40;;
41468;SDS011;27206;47.032;15.484;2023-07-22T08:08:29;25.83;;;24.15;;
41468;SDS011;27206;47.032;15.484;2023-07-22T08:10:59;33.22;;;31.40;;
41468;SDS011;27206;47.032;15.484;2023-07-22T08:13:31;33.80;;;31.90;;
41468;SDS011;27206;47.032;15.484;2023-07-22T08:15:58;38.08;;;36.08;;
41468;SDS011;27206;47.032;15.484;2023-07-22T08:18:25;32.10;;;30.30;;
41468;SDS011;27206;47.032;15.484;2023-07-22T08:20:54;34.90;;;32.90;;
41468;SDS011;27206;47.032;15.484;2023-07-22T08:23:20;35.80;;;33.75;;
41468;SDS011;27206;47.032;15.484;2023-07-22T08:25:46;31.23;;;29.33;;
41468;SDS011;27206;47.032;15.484;2023-07-22T08:28:13;30.13;;;28.50;;
41468;SDS011;27206;47.032;15.484;2023-07-22T08:30:39;33.97;;;32.17;;
41468;SDS011;27206;47.032;15.484;2023-07-22T08:33:05;33.13;;;31.30;;
41468;SDS011;27206;47.032;15.484;2023-07-22T08:35:35;36.40;;;34.45;;
41468;SDS011;27206;47.032;15.484;2023-07-22T08:38:01;30.70;;;28.80;;
41468;SDS011;27206;47.032;15.484;2023-07-22T08:40:27;36.63;;;34.70;;
41468;SDS011;27206;47.032;15.484;2023-07-22T08:43:04;38.63;;;36.40;;
41468;SDS011;27206;47.032;15.484;2023-07-22T08:45:32;42.40;;;40.20;;
41468;SDS011;27206;47.032;15.484;2023-07-22T08:48:03;31.48;;;29.73;;
41468;SDS011;27206;47.032;15.484;2023-07-22T08:53:11;37.47;;;35.58;;
41468;SDS011;27206;47.032;15.484;2023-07-22T08:55:38;38.15;;;36.15;;
41468;SDS011;27206;47.032;15.484;2023-07-22T08:58:10;38.60;;;36.47;;
41468;SDS011;27206;47.032;15.484;2023-07-22T09:00:36;40.13;;;37.75;;
41468;SDS011;27206;47.032;15.484;2023-07-22T09:03:03;40.88;;;38.80;;
41468;SDS011;27206;47.032;15.484;2023-07-22T09:05:30;36.55;;;34.63;;
41468;SDS011;27206;47.032;15.484;2023-07-22T09:07:58;37.88;;;35.78;;
41468;SDS011;27206;47.032;15.484;2023-07-22T09:10:27;26.25;;;24.85;;
41468;SDS011;27206;47.032;15.484;2023-07-22T09:12:53;28.38;;;26.80;;
41468;SDS011;27206;47.032;15.484;2023-07-22T09:15:19;25.90;;;24.50;;
41468;SDS011;27206;47.032;15.484;2023-07-22T09:17:46;29.73;;;28.13;;
41468;SDS011;27206;47.032;15.484;2023-07-22T09:20:12;22.00;;;20.67;;
41468;SDS011;27206;47.032;15.484;2023-07-22T09:22:45;23.35;;;22.15;;
41468;SDS011;27206;47.032;15.484;2023-07-22T09:27:44;28.42;;;26.83;;
41468;SDS011;27206;47.032;15.484;2023-07-22T09:32:57;29.23;;;27.75;;
41468;SDS011;27206;47.032;15.484;2023-07-22T09:35:28;32.22;;;30.33;;
41468;SDS011;27206;47.032;15.484;2023-07-22T09:37:55;31.10;;;29.23;;
41468;SDS011;27206;47.032;15.484;2023-07-22T09:40:22;31.65;;;29.92;;
41468;SDS011;27206;47.032;15.484;2023-07-22T09:42:50;34.50;;;32.50;;
41468;SDS011;27206;47.032;15.484;2023-07-22T09:45:28;36.50;;;34.58;;
41468;SDS011;27206;47.032;15.484;2023-07-22T09:47:56;30.17;;;28.55;;
41468;SDS011;27206;47.032;15.484;2023-07-22T09:50:23;32.58;;;30.75;;
41468;SDS011;27206;47.032;15.484;2023-07-22T09:52:53;35.65;;;33.72;;
41468;SDS011;27206;47.032;15.484;2023-07-22T09:55:24;33.80;;;31.88;;
41468;SDS011;27206;47.032;15.484;2023-07-22T09:57:58;34.30;;;32.58;;
41468;SDS011;27206;47.032;15.484;2023-07-22T10:00:24;36.85;;;34.85;;
41468;SDS011;27206;47.032;15.484;2023-07-22T10:02:53;34.80;;;32.95;;
41468;SDS011;27206;47.032;15.484;2023-07-22T10:05:21;38.72;;;36.72;;
41468;SDS011;27206;47.032;15.484;2023-07-22T10:07:48;38.30;;;35.63;;
41468;SDS011;27206;47.032;15.484;2023-07-22T10:10:18;34.17;;;32.22;;
41468;SDS011;27206;47.032;15.484;2023-07-22T10:12:48;30.55;;;28.92;;
41468;SDS011;27206;47.032;15.484;2023-07-22T10:15:15;36.85;;;34.97;;
41468;SDS011;27206;47.032;15.484;2023-07-22T10:17:42;37.70;;;35.80;;
41468;SDS011;27206;47.032;15.484;2023-07-22T10:20:10;30.52;;;28.98;;
41468;SDS011;27206;47.032;15.484;2023-07-22T10:22:40;37.15;;;35.33;;
41468;SDS011;27206;47.032;15.484;2023-07-22T10:25:10;33.35;;;31.65;;
41468;SDS011;27206;47.032;15.484;2023-07-22T10:27:38;37.05;;;35.17;;
41468;SDS011;27206;47.032;15.484;2023-07-22T10:30:06;26.60;;;25.10;;
41468;SDS011;27206;47.032;15.484;2023-07-22T10:32:39;24.75;;;23.35;;
41468;SDS011;27206;47.032;15.484;2023-07-22T10:35:10;12.25;;;11.55;;
41468;SDS011;27206;47.032;15.484;2023-07-22T10:37:37;17.70;;;16.63;;
41468;SDS011;27206;47.032;15.484;2023-07-22T10:40:16;19.00;;;17.80;;
41468;SDS011;27206;47.032;15.484;2023-07-22T10:42:52;15.93;;;14.93;;
41468;SDS011;27206;47.032;15.484;2023-07-22T10:45:26;20.95;;;19.75;;
41468;SDS011;27206;47.032;15.484;2023-07-22T10:48:00;18.17;;;17.15;;
41468;SDS011;27206;47.032;15.484;2023-07-22T10:53:28;23.20;;;21.92;;
41468;SDS011;27206;47.032;15.484;2023-07-22T11:04:07;18.75;;;17.65;;
41468;SDS011;27206;47.032;15.484;2023-07-22T11:06:35;23.92;;;22.63;;
41468;SDS011;27206;47.032;15.484;2023-07-22T11:09:02;17.88;;;16.85;;
41468;SDS011;27206;47.032;15.484;2023-07-22T11:11:42;15.27;;;14.27;;
41468;SDS011;27206;47.032;15.484;2023-07-22T11:14:16;16.67;;;15.68;;
41468;SDS011;27206;47.032;15.484;2023-07-22T11:16:45;19.80;;;18.70;;
41468;SDS011;27206;47.032;15.484;2023-07-22T11:19:12;14.52;;;13.52;;
41468;SDS011;27206;47.032;15.484;2023-07-22T11:21:39;14.43;;;13.52;;
41468;SDS011;27206;47.032;15.484;2023-07-22T11:24:06;14.88;;;13.98;;
41468;SDS011;27206;47.032;15.484;2023-07-22T11:26:32;17.92;;;16.83;;
41468;SDS011;27206;47.032;15.484;2023-07-22T11:28:59;22.08;;;20.77;;
41468;SDS011;27206;47.032;15.484;2023-07-22T11:31:30;16.80;;;15.80;;
41468;SDS011;27206;47.032;15.484;2023-07-22T11:34:10;13.50;;;12.60;;
41468;SDS011;27206;47.032;15.484;2023-07-22T11:36:36;15.35;;;14.45;;
41468;SDS011;27206;47.032;15.484;2023-07-22T11:39:05;17.95;;;16.85;;
41468;SDS011;27206;47.032;15.484;2023-07-22T11:41:32;13.85;;;13.05;;
41468;SDS011;27206;47.032;15.484;2023-07-22T11:43:59;13.23;;;12.43;;
41468;SDS011;27206;47.032;15.484;2023-07-22T11:46:25;9.27;;;8.65;;
41468;SDS011;27206;47.032;15.484;2023-07-22T11:48:52;18.73;;;17.58;;
41468;SDS011;27206;47.032;15.484;2023-07-22T11:51:23;22.50;;;21.30;;
41468;SDS011;27206;47.032;15.484;2023-07-22T11:53:49;21.17;;;19.88;;
41468;SDS011;27206;47.032;15.484;2023-07-22T11:56:23;23.05;;;21.83;;
41468;SDS011;27206;47.032;15.484;2023-07-22T11:58:53;30.85;;;29.15;;
41468;SDS011;27206;47.032;15.484;2023-07-22T12:01:21;28.52;;;26.95;;
41468;SDS011;27206;47.032;15.484;2023-07-22T12:03:48;31.02;;;29.45;;
41468;SDS011;27206;47.032;15.484;2023-07-22T12:06:14;31.60;;;29.88;;
41468;SDS011;27206;47.032;15.484;2023-07-22T12:08:44;30.88;;;29.17;;
41468;SDS011;27206;47.032;15.484;2023-07-22T12:11:18;31.02;;;29.40;;
41468;SDS011;27206;47.032;15.484;2023-07-22T12:13:47;24.42;;;23.13;;
41468;SDS011;27206;47.032;15.484;2023-07-22T12:16:29;25.90;;;24.55;;
41468;SDS011;27206;47.032;15.484;2023-07-22T12:18:54;33.35;;;31.45;;
41468;SDS011;27206;47.032;15.484;2023-07-22T12:21:21;29.73;;;28.20;;
41468;SDS011;27206;47.032;15.484;2023-07-22T12:23:47;28.15;;;26.65;;
41468;SDS011;27206;47.032;15.484;2023-07-22T12:26:12;32.25;;;30.45;;
41468;SDS011;27206;47.032;15.484;2023-07-22T12:28:38;31.02;;;29.42;;
41468;SDS011;27206;47.032;15.484;2023-07-22T12:31:04;30.60;;;29.02;;
41468;SDS011;27206;47.032;15.484;2023-07-22T12:33:30;29.65;;;28.13;;
41468;SDS011;27206;47.032;15.484;2023-07-22T12:35:56;25.63;;;24.20;;
41468;SDS011;27206;47.032;15.484;2023-07-22T12:38:22;25.00;;;23.60;;
41468;SDS011;27206;47.032;15.484;2023-07-22T12:40:48;23.98;;;22.60;;
41468;SDS011;27206;47.032;15.484;2023-07-22T12:43:14;27.98;;;26.55;;
41468;SDS011;27206;47.032;15.484;2023-07-22T12:45:40;26.02;;;24.42;;
41468;SDS011;27206;47.032;15.484;2023-07-22T12:48:05;30.23;;;28.52;;
41468;SDS011;27206;47.032;15.484;2023-07-22T12:50:31;32.63;;;30.98;;
41468;SDS011;27206;47.032;15.484;2023-07-22T12:53:01;30.40;;;28.73;;
41468;SDS011;27206;47.032;15.484;2023-07-22T12:55:28;33.53;;;31.75;;
41468;SDS011;27206;47.032;15.484;2023-07-22T12:57:54;31.17;;;29.45;;
41468;SDS011;27206;47.032;15.484;2023-07-22T13:00:19;33.20;;;31.40;;
41468;SDS011;27206;47.032;15.484;2023-07-22T13:02:46;35.67;;;33.85;;
41468;SDS011;27206;47.032;15.484;2023-07-22T13:05:12;32.45;;;30.77;;
41468;SDS011;27206;47.032;15.484;2023-07-22T13:07:37;31.02;;;29.33;;
41468;SDS011;27206;47.032;15.484;2023-07-22T13:10:03;32.58;;;30.88;;
41468;SDS011;27206;47.032;15.484;2023-07-22T13:12:32;34.97;;;33.10;;
41468;SDS011;27206;47.032;15.484;2023-07-22T13:14:58;32.70;;;31.00;;
41468;SDS011;27206;47.032;15.484;2023-07-22T13:17:24;36.08;;;34.33;;
41468;SDS011;27206;47.032;15.484;2023-07-22T13:19:49;37.50;;;35.50;;
41468;SDS011;27206;47.032;15.484;2023-07-22T13:22:15;38.65;;;36.60;;
41468;SDS011;27206;47.032;15.484;2023-07-22T13:24:40;38.35;;;36.38;;
41468;SDS011;27206;47.032;15.484;2023-07-22T13:27:06;36.25;;;34.35;;
41468;SDS011;27206;47.032;15.484;2023-07-22T13:29:32;37.97;;;36.08;;
41468;SDS011;27206;47.032;15.484;2023-07-22T13:31:58;36.78;;;34.88;;
41468;SDS011;27206;47.032;15.484;2023-07-22T13:34:24;39.95;;;37.78;;
41468;SDS011;27206;47.032;15.484;2023-07-22T13:36:50;38.25;;;36.25;;
41468;SDS011;27206;47.032;15.484;2023-07-22T13:39:16;36.10;;;34.22;;
41468;SDS011;27206;47.032;15.484;2023-07-22T13:41:41;37.13;;;35.13;;
41468;SDS011;27206;47.032;15.484;2023-07-22T13:44:07;33.58;;;31.85;;
41468;SDS011;27206;47.032;15.484;2023-07-22T13:46:33;36.10;;;34.10;;
41468;SDS011;27206;47.032;15.484;2023-07-22T13:48:59;36.65;;;34.75;;
41468;SDS011;27206;47.032;15.484;2023-07-22T13:51:24;36.13;;;34.08;;
41468;SDS011;27206;47.032;15.484;2023-07-22T13:53:50;31.13;;;29.33;;
41468;SDS011;27206;47.032;15.484;2023-07-22T13:56:17;37.58;;;35.67;;
41468;SDS011;27206;47.032;15.484;2023-07-22T13:58:43;39.20;;;37.20;;
41468;SDS011;27206;47.032;15.484;2023-07-22T14:01:08;37.63;;;35.40;;
41468;SDS011;27206;47.032;15.484;2023-07-22T14:03:34;37.88;;;35.97;;
41468;SDS011;27206;47.032;15.484;2023-07-22T14:06:00;32.75;;;30.92;;
41468;SDS011;27206;47.032;15.484;2023-07-22T14:08:25;30.98;;;29.27;;
41468;SDS011;27206;47.032;15.484;2023-07-22T14:10:51;35.78;;;33.70;;
41468;SDS011;27206;47.032;15.484;2023-07-22T14:13:17;28.70;;;27.10;;
41468;SDS011;27206;47.032;15.484;2023-07-22T14:15:43;30.20;;;28.35;;
41468;SDS011;27206;47.032;15.484;2023-07-22T14:18:08;30.95;;;29.27;;
41468;SDS011;27206;47.032;15.484;2023-07-22T14:20:34;24.60;;;22.95;;
41468;SDS011;27206;47.032;15.484;2023-07-22T14:23:00;26.48;;;24.98;;
41468;SDS011;27206;47.032;15.484;2023-07-22T14:25:26;24.45;;;22.95;;
41468;SDS011;27206;47.032;15.484;2023-07-22T14:27:51;22.10;;;20.80;;
41468;SDS011;27206;47.032;15.484;2023-07-22T14:30:17;23.48;;;21.98;;